Time;durP1;ratioP1;P1;durP2;ratioP2;P2;SDS_P1;SDS_P2;PMS_P1;PMS_P2;Temp;Humidity;BMP_temperature;BMP_pressure;BME280_temperature;BME280_humidity;BME280_pressure;Samples;Min_cycle;Max_cycle;Signal;HPM_P1;HPM_P2
2022/02/13 00:00:28;;;;;;;0.80;0.50;;;;;;;;;;5052065;28;20195;-67
2022/02/13 00:02:55;;;;;;;1.57;1.47;;;;;;;;;;5052825;28;20766;-68
2022/02/13 00:05:22;;;;;;;2.97;2.33;;;;;;;;;;5051033;28;20254;-69
2022/02/13 00:07:50;;;;;;;0.83;0.83;;;;;;;;;;5050594;28;20581;-68
2022/02/13 00:10:17;;;;;;;1.90;0.63;;;;;;;;;;5052815;28;20206;-68
2022/02/13 00:12:44;;;;;;;1.83;0.67;;;;;;;;;;5051404;28;20196;-68
2022/02/13 00:15:13;;;;;;;2.63;2.33;;;;;;;;;;5050517;28;20703;-68
2022/02/13 00:17:41;;;;;;;5.40;3.03;;;;;;;;;;5056422;28;20222;-68
2022/02/13 00:20:09;;;;;;;1.37;1.03;;;;;;;;;;5051157;28;20192;-68
2022/02/13 00:22:36;;;;;;;2.80;1.60;;;;;;;;;;5049862;28;20202;-67
2022/02/13 00:25:04;;;;;;;0.57;0.57;;;;;;;;;;5037243;28;20559;-71
2022/02/13 00:27:31;;;;;;;1.30;0.60;;;;;;;;;;5033039;28;20215;-68
2022/02/13 00:29:58;;;;;;;2.30;2.10;;;;;;;;;;5035019;28;20206;-69
2022/02/13 00:32:28;;;;;;;1.47;1.33;;;;;;;;;;5036636;28;20203;-68
2022/02/13 00:34:55;;;;;;;1.30;1.20;;;;;;;;;;5042586;28;20203;-69
2022/02/13 00:37:23;;;;;;;2.83;1.13;;;;;;;;;;5034288;28;20234;-69
2022/02/13 00:39:50;;;;;;;1.93;1.20;;;;;;;;;;5034751;28;20195;-69
2022/02/13 00:42:18;;;;;;;3.03;2.73;;;;;;;;;;5039539;28;20195;-68
2022/02/13 00:44:45;;;;;;;1.13;0.73;;;;;;;;;;5041958;28;20199;-70
2022/02/13 00:47:13;;;;;;;4.60;1.03;;;;;;;;;;5033872;28;21212;-70
2022/02/13 00:49:42;;;;;;;5.07;2.93;;;;;;;;;;5041700;28;20203;-69
2022/02/13 00:52:09;;;;;;;1.60;1.50;;;;;;;;;;5052298;28;20202;-72
2022/02/13 00:54:36;;;;;;;4.83;3.67;;;;;;;;;;5051336;28;20203;-69
2022/02/13 00:57:04;;;;;;;3.37;2.70;;;;;;;;;;5056079;28;20191;-68
2022/02/13 00:59:31;;;;;;;3.57;2.37;;;;;;;;;;5049496;28;20591;-68
2022/02/13 01:01:59;;;;;;;2.37;1.27;;;;;;;;;;5054430;28;20199;-68
2022/02/13 01:04:26;;;;;;;6.70;3.57;;;;;;;;;;5050501;28;20199;-68
2022/02/13 01:06:55;;;;;;;2.67;2.40;;;;;;;;;;5048826;28;20238;-70
2022/02/13 01:09:22;;;;;;;1.00;1.00;;;;;;;;;;5037841;28;20203;-69
2022/02/13 01:11:49;;;;;;;6.70;2.13;;;;;;;;;;5038958;28;20196;-70
2022/02/13 01:14:17;;;;;;;3.53;2.33;;;;;;;;;;5036798;28;20210;-67
2022/02/13 01:16:44;;;;;;;2.47;1.97;;;;;;;;;;5035260;28;20206;-68
2022/02/13 01:19:11;;;;;;;8.47;4.00;;;;;;;;;;5039399;28;20212;-71
2022/02/13 01:21:39;;;;;;;4.60;2.27;;;;;;;;;;5036991;28;20860;-71
2022/02/13 01:24:08;;;;;;;3.43;3.07;;;;;;;;;;5032549;28;21298;-71
2022/02/13 01:26:35;;;;;;;2.40;2.13;;;;;;;;;;5035550;28;20226;-69
2022/02/13 01:29:03;;;;;;;1.20;0.83;;;;;;;;;;5034580;28;20191;-68
2022/02/13 01:31:30;;;;;;;4.27;2.10;;;;;;;;;;5034296;28;20214;-68
2022/02/13 01:33:57;;;;;;;5.63;3.63;;;;;;;;;;5038131;28;20199;-67
2022/02/13 01:36:25;;;;;;;0.20;0.20;;;;;;;;;;5037605;28;20199;-69
2022/02/13 01:38:52;;;;;;;3.63;2.60;;;;;;;;;;5034369;28;20790;-68
2022/02/13 01:41:21;;;;;;;2.03;1.93;;;;;;;;;;5038471;28;20638;-68
2022/02/13 01:43:48;;;;;;;1.17;1.17;;;;;;;;;;5039040;28;20563;-67
2022/02/13 01:46:16;;;;;;;1.70;1.30;;;;;;;;;;5041007;28;20652;-68
2022/02/13 01:48:43;;;;;;;1.60;1.50;;;;;;;;;;5042004;28;20199;-68
2022/02/13 01:51:10;;;;;;;0.67;0.67;;;;;;;;;;5040057;28;20250;-70
2022/02/13 01:53:38;;;;;;;2.87;2.03;;;;;;;;;;5038450;28;20545;-68
2022/02/13 01:56:05;;;;;;;2.40;1.20;;;;;;;;;;5047945;28;21699;-71
2022/02/13 01:58:34;;;;;;;0.30;0.23;;;;;;;;;;5052813;28;20231;-69
2022/02/13 02:01:02;;;;;;;1.30;0.67;;;;;;;;;;5055146;28;20770;-68
2022/02/13 02:03:30;;;;;;;0.40;0.40;;;;;;;;;;5054671;28;20199;-68
2022/02/13 02:05:58;;;;;;;2.33;2.07;;;;;;;;;;5055592;28;20246;-68
2022/02/13 02:08:25;;;;;;;4.40;1.40;;;;;;;;;;5054218;28;20202;-69
2022/02/13 02:10:53;;;;;;;4.47;2.70;;;;;;;;;;5052729;28;20202;-68
2022/02/13 02:13:20;;;;;;;0.20;0.03;;;;;;;;;;5052640;28;20196;-69
2022/02/13 02:15:49;;;;;;;1.20;1.10;;;;;;;;;;5052674;28;20199;-68
2022/02/13 02:18:16;;;;;;;1.97;1.77;;;;;;;;;;5052639;28;20227;-67
2022/02/13 02:20:44;;;;;;;1.27;1.17;;;;;;;;;;5053150;28;20229;-71
2022/02/13 02:23:12;;;;;;;2.27;1.73;;;;;;;;;;5054923;28;20195;-67
2022/02/13 02:25:40;;;;;;;1.87;1.77;;;;;;;;;;5054460;28;20203;-67
2022/02/13 02:28:07;;;;;;;3.47;2.90;;;;;;;;;;5043537;28;21650;-69
2022/02/13 02:30:35;;;;;;;2.80;1.87;;;;;;;;;;5038311;28;20281;-70
2022/02/13 02:33:02;;;;;;;2.23;1.93;;;;;;;;;;5037865;28;20199;-70
2022/02/13 02:35:30;;;;;;;3.17;2.37;;;;;;;;;;5045390;28;20321;-69
2022/02/13 02:37:57;;;;;;;5.10;2.80;;;;;;;;;;5037537;28;20226;-69
2022/02/13 02:40:26;;;;;;;1.60;0.60;;;;;;;;;;5036427;28;20208;-68
2022/02/13 02:42:54;;;;;;;3.27;2.10;;;;;;;;;;5039850;28;21577;-67
2022/02/13 02:45:21;;;;;;;4.63;1.30;;;;;;;;;;5044445;28;20208;-69
2022/02/13 02:47:49;;;;;;;2.27;1.90;;;;;;;;;;5035071;28;20221;-68
2022/02/13 02:50:16;;;;;;;3.97;2.17;;;;;;;;;;5049713;28;20192;-70
2022/02/13 02:52:43;;;;;;;0.60;0.60;;;;;;;;;;5036993;28;20299;-70
2022/02/13 02:55:11;;;;;;;5.50;3.00;;;;;;;;;;5036866;28;20196;-68
2022/02/13 02:57:40;;;;;;;3.13;2.23;;;;;;;;;;5035495;28;20211;-70
2022/02/13 03:00:08;;;;;;;5.33;2.73;;;;;;;;;;5038541;28;20203;-68
2022/02/13 03:02:35;;;;;;;2.70;2.20;;;;;;;;;;5035588;28;20805;-68
2022/02/13 03:05:03;;;;;;;2.43;2.23;;;;;;;;;;5043397;28;20214;-67
2022/02/13 03:07:30;;;;;;;2.47;2.03;;;;;;;;;;5040676;28;20747;-69
2022/02/13 03:09:57;;;;;;;2.63;1.10;;;;;;;;;;5039867;28;20292;-68
2022/02/13 03:12:25;;;;;;;5.00;3.23;;;;;;;;;;5040134;28;20204;-72
2022/02/13 03:14:54;;;;;;;2.43;1.83;;;;;;;;;;5034991;28;20202;-69
2022/02/13 03:17:21;;;;;;;2.40;2.10;;;;;;;;;;5041434;28;20203;-69
2022/02/13 03:19:48;;;;;;;1.93;1.83;;;;;;;;;;5042525;28;20227;-68
2022/02/13 03:22:16;;;;;;;3.23;2.93;;;;;;;;;;5038858;28;20807;-72
2022/02/13 03:24:43;;;;;;;2.33;1.77;;;;;;;;;;5035780;28;20203;-69
2022/02/13 03:27:10;;;;;;;2.30;0.43;;;;;;;;;;5034819;28;20557;-68
2022/02/13 03:29:38;;;;;;;3.63;2.73;;;;;;;;;;5039882;28;20202;-68
2022/02/13 03:32:07;;;;;;;1.50;1.40;;;;;;;;;;5040629;28;20214;-68
2022/02/13 03:34:35;;;;;;;3.17;2.13;;;;;;;;;;5042628;28;20425;-70
2022/02/13 03:37:02;;;;;;;2.90;2.37;;;;;;;;;;5035268;28;22233;-68
2022/02/13 03:39:29;;;;;;;5.70;4.10;;;;;;;;;;5037914;28;20224;-68
2022/02/13 03:41:57;;;;;;;3.40;1.67;;;;;;;;;;5036203;28;20203;-67
2022/02/13 03:44:24;;;;;;;3.27;1.73;;;;;;;;;;5039917;28;20199;-67
2022/02/13 03:46:51;;;;;;;1.60;1.47;;;;;;;;;;5039608;28;20195;-68
2022/02/13 03:49:20;;;;;;;5.03;3.20;;;;;;;;;;5042883;28;20195;-70
2022/02/13 03:51:49;;;;;;;3.07;2.20;;;;;;;;;;5061205;28;20570;-69
2022/02/13 03:54:17;;;;;;;0.83;0.83;;;;;;;;;;5056053;28;20199;-67
2022/02/13 03:56:44;;;;;;;2.87;1.53;;;;;;;;;;5052661;28;20204;-70
2022/02/13 03:59:11;;;;;;;0.00;0.00;;;;;;;;;;5055925;28;20236;-69
2022/02/13 04:01:39;;;;;;;0.73;0.40;;;;;;;;;;5056882;28;20205;-70
2022/02/13 04:04:06;;;;;;;0.53;0.53;;;;;;;;;;5052244;28;20715;-69
2022/02/13 04:06:35;;;;;;;1.77;1.63;;;;;;;;;;5050028;28;20235;-69
2022/02/13 04:09:02;;;;;;;1.70;1.60;;;;;;;;;;5050290;28;20202;-69
2022/02/13 04:11:30;;;;;;;1.90;1.13;;;;;;;;;;5052523;28;20210;-70
2022/02/13 04:13:57;;;;;;;0.90;0.83;;;;;;;;;;5051256;28;20210;-68
2022/02/13 04:16:24;;;;;;;4.23;2.27;;;;;;;;;;5051023;28;20200;-69
2022/02/13 04:18:52;;;;;;;1.90;1.70;;;;;;;;;;5054736;28;20233;-67
2022/02/13 04:21:19;;;;;;;2.73;2.53;;;;;;;;;;5051491;28;20204;-68
2022/02/13 04:23:48;;;;;;;1.50;1.40;;;;;;;;;;5051578;28;20199;-69
2022/02/13 04:26:15;;;;;;;1.20;1.03;;;;;;;;;;5055716;28;20215;-67
2022/02/13 04:28:42;;;;;;;2.60;2.30;;;;;;;;;;5055234;28;20200;-68
2022/02/13 04:31:10;;;;;;;5.33;3.37;;;;;;;;;;5052899;28;20699;-68
2022/02/13 04:33:37;;;;;;;0.60;0.60;;;;;;;;;;5052674;28;20199;-67
2022/02/13 04:36:05;;;;;;;5.20;3.30;;;;;;;;;;5050541;28;20208;-69
2022/02/13 04:38:33;;;;;;;4.03;2.87;;;;;;;;;;5053241;28;20311;-68
2022/02/13 04:41:02;;;;;;;5.47;3.23;;;;;;;;;;5050884;28;20203;-68
2022/02/13 04:43:29;;;;;;;3.47;2.03;;;;;;;;;;5050130;28;20257;-70
2022/02/13 04:45:56;;;;;;;0.93;0.90;;;;;;;;;;5052878;28;20198;-67
2022/02/13 04:48:24;;;;;;;2.40;2.20;;;;;;;;;;5055091;28;20199;-68
2022/02/13 04:50:51;;;;;;;2.47;0.73;;;;;;;;;;5051120;28;20203;-67
2022/02/13 04:53:18;;;;;;;2.80;1.60;;;;;;;;;;5050203;28;20203;-67
2022/02/13 04:55:46;;;;;;;3.37;2.53;;;;;;;;;;5049774;28;20195;-67
2022/02/13 04:58:14;;;;;;;2.33;1.17;;;;;;;;;;5056728;28;20196;-68
2022/02/13 05:00:42;;;;;;;1.13;1.13;;;;;;;;;;5051434;28;20203;-67
2022/02/13 05:03:09;;;;;;;2.77;2.53;;;;;;;;;;5056796;28;20202;-68
2022/02/13 05:05:36;;;;;;;2.47;2.27;;;;;;;;;;5052574;28;20237;-68
2022/02/13 05:08:04;;;;;;;1.10;1.00;;;;;;;;;;5049247;28;20203;-68
2022/02/13 05:10:32;;;;;;;0.87;0.87;;;;;;;;;;5047751;28;20664;-69
2022/02/13 05:12:59;;;;;;;3.20;1.90;;;;;;;;;;5051619;28;20224;-68
2022/02/13 05:15:28;;;;;;;3.00;2.17;;;;;;;;;;5047822;28;20203;-70
2022/02/13 05:17:55;;;;;;;3.50;1.83;;;;;;;;;;5050333;28;20194;-68
2022/02/13 05:20:22;;;;;;;3.10;2.00;;;;;;;;;;5047040;28;20227;-69
2022/02/13 05:22:50;;;;;;;2.20;2.00;;;;;;;;;;5050215;28;20202;-67
2022/02/13 05:25:17;;;;;;;1.03;0.97;;;;;;;;;;5051848;28;20213;-68
2022/02/13 05:27:45;;;;;;;0.50;0.50;;;;;;;;;;5047063;28;20214;-68
2022/02/13 05:30:12;;;;;;;3.87;1.30;;;;;;;;;;5049214;28;20203;-70
2022/02/13 05:32:41;;;;;;;2.10;1.07;;;;;;;;;;5051645;28;20298;-69
2022/02/13 05:35:09;;;;;;;0.67;0.67;;;;;;;;;;5050262;28;20200;-70
2022/02/13 05:37:39;;;;;;;2.73;1.97;;;;;;;;;;5049686;28;20203;-70
2022/02/13 05:40:07;;;;;;;4.70;2.10;;;;;;;;;;5048432;28;20227;-71
2022/02/13 05:42:35;;;;;;;0.30;0.30;;;;;;;;;;5049891;28;20207;-68
2022/02/13 05:45:02;;;;;;;2.37;2.17;;;;;;;;;;5050918;28;20209;-67
2022/02/13 05:47:30;;;;;;;2.27;0.77;;;;;;;;;;5051548;28;20691;-68
2022/02/13 05:49:58;;;;;;;2.53;0.70;;;;;;;;;;5050766;28;20202;-68
2022/02/13 05:52:26;;;;;;;0.37;0.23;;;;;;;;;;5051089;28;20196;-69
2022/02/13 05:54:53;;;;;;;1.83;0.90;;;;;;;;;;5050299;28;20195;-67
2022/02/13 05:57:20;;;;;;;0.40;0.40;;;;;;;;;;5054708;28;20191;-69
2022/02/13 05:59:48;;;;;;;3.07;2.03;;;;;;;;;;5048947;28;20234;-69
2022/02/13 06:02:15;;;;;;;4.47;1.83;;;;;;;;;;5050814;28;20203;-68
2022/02/13 06:04:43;;;;;;;1.80;1.70;;;;;;;;;;5048442;28;20214;-70
2022/02/13 06:07:11;;;;;;;2.43;1.73;;;;;;;;;;5046948;28;20231;-68
2022/02/13 06:09:39;;;;;;;2.83;1.60;;;;;;;;;;5050302;28;20302;-68
2022/02/13 06:12:06;;;;;;;5.30;2.33;;;;;;;;;;5047762;28;20199;-69
2022/02/13 06:14:34;;;;;;;2.67;1.53;;;;;;;;;;5050702;28;20199;-72
2022/02/13 06:17:01;;;;;;;2.97;1.90;;;;;;;;;;5050018;28;20206;-67
2022/02/13 06:19:29;;;;;;;2.00;1.80;;;;;;;;;;5047529;28;20227;-68
2022/02/13 06:21:56;;;;;;;0.47;0.47;;;;;;;;;;5052524;28;20348;-67
2022/02/13 06:24:25;;;;;;;3.73;2.67;;;;;;;;;;5048609;28;20211;-70
2022/02/13 06:26:53;;;;;;;0.83;0.83;;;;;;;;;;5051685;28;20196;-70
2022/02/13 06:29:20;;;;;;;3.37;2.47;;;;;;;;;;5051805;28;20286;-69
2022/02/13 06:31:47;;;;;;;0.20;0.20;;;;;;;;;;5054969;28;20278;-69
2022/02/13 06:34:15;;;;;;;3.20;2.47;;;;;;;;;;5052358;28;20203;-67
2022/02/13 06:36:43;;;;;;;5.60;2.90;;;;;;;;;;5055068;28;20207;-67
2022/02/13 06:39:10;;;;;;;2.40;2.03;;;;;;;;;;5056705;28;20234;-68
2022/02/13 06:41:39;;;;;;;0.90;0.90;;;;;;;;;;5054157;28;20297;-68
2022/02/13 06:44:06;;;;;;;4.63;1.30;;;;;;;;;;5058306;28;20207;-70
2022/02/13 06:46:34;;;;;;;2.13;1.60;;;;;;;;;;5055889;28;20202;-68
2022/02/13 06:49:01;;;;;;;0.90;0.80;;;;;;;;;;5054952;28;20208;-69
2022/02/13 06:51:28;;;;;;;0.30;0.30;;;;;;;;;;5053861;28;20200;-68
2022/02/13 06:53:56;;;;;;;1.53;1.20;;;;;;;;;;5053881;28;20195;-69
2022/02/13 06:56:23;;;;;;;1.60;0.83;;;;;;;;;;5052912;28;20203;-68
2022/02/13 06:58:52;;;;;;;4.43;2.37;;;;;;;;;;5052008;28;21070;-67
2022/02/13 07:01:19;;;;;;;1.90;1.80;;;;;;;;;;5055121;28;20199;-68
2022/02/13 07:03:47;;;;;;;1.50;1.27;;;;;;;;;;5051657;28;20199;-70
2022/02/13 07:06:14;;;;;;;1.17;1.00;;;;;;;;;;5052943;28;21419;-67
2022/02/13 07:08:41;;;;;;;3.10;0.57;;;;;;;;;;5053880;28;20199;-72
2022/02/13 07:11:09;;;;;;;0.43;0.40;;;;;;;;;;5056046;28;20732;-69
2022/02/13 07:13:37;;;;;;;2.40;1.73;;;;;;;;;;5055300;28;20203;-67
2022/02/13 07:16:07;;;;;;;3.23;2.37;;;;;;;;;;5052021;28;20827;-68
2022/02/13 07:18:34;;;;;;;2.57;2.37;;;;;;;;;;5050841;28;20207;-69
2022/02/13 07:21:01;;;;;;;2.30;1.70;;;;;;;;;;5055311;28;20238;-67
2022/02/13 07:23:29;;;;;;;2.40;2.13;;;;;;;;;;5056726;28;20331;-68
2022/02/13 07:25:57;;;;;;;5.30;2.10;;;;;;;;;;5056158;28;20203;-67
2022/02/13 07:31:11;;;;;;;1.97;1.80;;;;;;;;;;5054602;28;20214;-68
2022/02/13 07:33:38;;;;;;;0.23;0.23;;;;;;;;;;5050930;28;20207;-69
2022/02/13 07:36:06;;;;;;;4.70;2.47;;;;;;;;;;5051826;28;20202;-67
2022/02/13 07:38:33;;;;;;;3.07;2.17;;;;;;;;;;5052825;28;20203;-68
2022/02/13 07:41:00;;;;;;;3.60;1.97;;;;;;;;;;5056081;28;20250;-68
2022/02/13 07:43:28;;;;;;;2.47;2.23;;;;;;;;;;5053937;28;20198;-66
2022/02/13 07:45:55;;;;;;;5.87;2.40;;;;;;;;;;5056059;28;20500;-68
2022/02/13 07:48:24;;;;;;;1.37;1.27;;;;;;;;;;5053719;28;20203;-69
2022/02/13 07:50:51;;;;;;;2.87;2.60;;;;;;;;;;5054516;28;20202;-68
2022/02/13 07:53:20;;;;;;;2.13;1.93;;;;;;;;;;5051594;28;20203;-68
2022/02/13 07:55:48;;;;;;;1.80;1.70;;;;;;;;;;5050917;28;20202;-68
2022/02/13 07:58:15;;;;;;;4.17;1.50;;;;;;;;;;5050058;28;20191;-68
2022/02/13 08:00:42;;;;;;;6.47;3.87;;;;;;;;;;5052303;28;20233;-67
2022/02/13 08:03:10;;;;;;;1.13;0.70;;;;;;;;;;5050800;28;20200;-67
2022/02/13 08:05:40;;;;;;;4.33;2.70;;;;;;;;;;5048933;28;20231;-71
2022/02/13 08:08:07;;;;;;;1.67;0.73;;;;;;;;;;5052680;28;20242;-70
2022/02/13 08:10:35;;;;;;;2.23;1.63;;;;;;;;;;5047153;28;20200;-70
2022/02/13 08:13:02;;;;;;;7.23;3.10;;;;;;;;;;5053106;28;20214;-67
2022/02/13 08:15:30;;;;;;;6.83;3.87;;;;;;;;;;5054533;28;20200;-70
2022/02/13 08:17:57;;;;;;;1.73;1.60;;;;;;;;;;5051521;28;20729;-67
2022/02/13 08:20:25;;;;;;;3.67;2.77;;;;;;;;;;5049452;28;20224;-67
2022/02/13 08:22:53;;;;;;;3.13;2.63;;;;;;;;;;5049894;28;20195;-69
2022/02/13 08:25:21;;;;;;;4.40;2.67;;;;;;;;;;5065467;28;20191;-68
2022/02/13 08:27:48;;;;;;;2.80;1.80;;;;;;;;;;5062159;28;20199;-69
2022/02/13 08:30:16;;;;;;;4.63;3.57;;;;;;;;;;5052839;28;20207;-67
2022/02/13 08:32:43;;;;;;;2.73;1.93;;;;;;;;;;5054145;28;20199;-67
2022/02/13 08:35:12;;;;;;;2.70;2.17;;;;;;;;;;5050123;28;20348;-67
2022/02/13 08:37:40;;;;;;;4.17;2.87;;;;;;;;;;5060645;28;20497;-67
2022/02/13 08:40:10;;;;;;;2.27;1.17;;;;;;;;;;5070191;28;20226;-68
2022/02/13 08:42:37;;;;;;;1.40;1.30;;;;;;;;;;5053653;28;20195;-68
2022/02/13 08:45:05;;;;;;;5.13;3.13;;;;;;;;;;5063216;28;20205;-68
2022/02/13 08:47:33;;;;;;;3.13;2.57;;;;;;;;;;5068163;28;20207;-68
2022/02/13 08:50:00;;;;;;;4.53;2.83;;;;;;;;;;5051946;28;20573;-68
2022/02/13 08:52:28;;;;;;;1.20;1.10;;;;;;;;;;5056194;28;20195;-68
2022/02/13 08:54:55;;;;;;;5.80;3.83;;;;;;;;;;5057415;28;20225;-68
2022/02/13 08:57:24;;;;;;;2.47;1.87;;;;;;;;;;5060503;28;20199;-67
2022/02/13 08:59:51;;;;;;;5.17;3.27;;;;;;;;;;5053121;28;20223;-67
2022/02/13 09:02:19;;;;;;;1.83;1.40;;;;;;;;;;5065615;28;20573;-67
2022/02/13 09:04:46;;;;;;;3.37;2.53;;;;;;;;;;5064802;28;20260;-69
2022/02/13 09:07:14;;;;;;;2.80;2.20;;;;;;;;;;5053231;28;20738;-69
2022/02/13 09:09:45;;;;;;;3.47;2.97;;;;;;;;;;5062683;28;20199;-69
2022/02/13 09:12:15;;;;;;;7.60;2.53;;;;;;;;;;5056535;28;20205;-68
2022/02/13 09:14:43;;;;;;;2.40;1.63;;;;;;;;;;5051201;28;20687;-67
2022/02/13 09:17:11;;;;;;;3.83;2.80;;;;;;;;;;5052254;28;20195;-68
2022/02/13 09:19:38;;;;;;;7.43;2.50;;;;;;;;;;5058213;28;20199;-67
2022/02/13 09:22:07;;;;;;;3.50;2.27;;;;;;;;;;5052267;28;20203;-70
2022/02/13 09:24:35;;;;;;;2.20;1.83;;;;;;;;;;5052072;28;20714;-68
2022/02/13 09:27:02;;;;;;;2.83;2.47;;;;;;;;;;5054623;28;20226;-68
2022/02/13 09:29:30;;;;;;;2.87;2.53;;;;;;;;;;5057757;28;20212;-68
2022/02/13 09:31:58;;;;;;;3.60;1.23;;;;;;;;;;5052165;28;20211;-69
2022/02/13 09:34:28;;;;;;;0.47;0.30;;;;;;;;;;5052451;28;20203;-68
2022/02/13 09:36:56;;;;;;;3.87;2.63;;;;;;;;;;5052882;28;21858;-68
2022/02/13 09:39:24;;;;;;;2.33;1.43;;;;;;;;;;5070987;28;20194;-68
2022/02/13 09:41:51;;;;;;;2.97;2.57;;;;;;;;;;5068102;28;20226;-68
2022/02/13 09:44:19;;;;;;;1.57;1.47;;;;;;;;;;5056502;28;20198;-70
2022/02/13 09:46:46;;;;;;;1.70;1.50;;;;;;;;;;5053565;28;20204;-71
2022/02/13 09:49:17;;;;;;;2.40;2.07;;;;;;;;;;5059083;28;20204;-69
2022/02/13 09:51:44;;;;;;;2.53;2.30;;;;;;;;;;5063992;28;20210;-68
2022/02/13 09:54:12;;;;;;;3.63;2.17;;;;;;;;;;5070495;28;20205;-68
2022/02/13 09:56:39;;;;;;;2.10;1.10;;;;;;;;;;5076937;28;20652;-69
2022/02/13 09:59:08;;;;;;;4.00;3.63;;;;;;;;;;5059723;28;20195;-68
2022/02/13 10:01:37;;;;;;;8.13;4.13;;;;;;;;;;5078374;28;20245;-67
2022/02/13 10:04:05;;;;;;;5.97;2.47;;;;;;;;;;5075846;28;20204;-69
2022/02/13 10:06:36;;;;;;;0.50;0.37;;;;;;;;;;5073770;28;20218;-70
2022/02/13 10:09:04;;;;;;;0.60;0.30;;;;;;;;;;5065408;28;20570;-69
2022/02/13 10:11:33;;;;;;;3.50;3.03;;;;;;;;;;5060297;28;20617;-69
2022/02/13 10:14:03;;;;;;;3.23;2.00;;;;;;;;;;5069968;28;20230;-70
2022/02/13 10:16:31;;;;;;;2.23;1.07;;;;;;;;;;5060613;28;20902;-68
2022/02/13 10:18:59;;;;;;;3.63;3.07;;;;;;;;;;5065630;28;20200;-68
2022/02/13 10:21:36;;;;;;;2.03;1.80;;;;;;;;;;5073553;28;20223;-67
2022/02/13 10:24:13;;;;;;;2.27;1.50;;;;;;;;;;5060997;28;20239;-69
2022/02/13 10:26:41;;;;;;;1.00;0.90;;;;;;;;;;5055306;28;20238;-68
2022/02/13 10:29:08;;;;;;;1.60;1.27;;;;;;;;;;5067411;28;20199;-67
2022/02/13 10:31:36;;;;;;;5.43;3.17;;;;;;;;;;5074732;28;20286;-68
2022/02/13 10:34:05;;;;;;;1.03;0.97;;;;;;;;;;5066839;28;20202;-67
2022/02/13 10:36:39;;;;;;;6.77;3.07;;;;;;;;;;5062925;28;20549;-68
2022/02/13 10:39:18;;;;;;;4.27;3.30;;;;;;;;;;5071299;28;20575;-68
2022/02/13 10:41:45;;;;;;;1.33;1.20;;;;;;;;;;5034204;28;20222;-68
2022/02/13 10:44:12;;;;;;;3.50;2.20;;;;;;;;;;5071743;28;20207;-68
2022/02/13 10:46:40;;;;;;;3.97;2.47;;;;;;;;;;5065577;28;20195;-67
2022/02/13 10:49:08;;;;;;;2.80;2.23;;;;;;;;;;5073627;28;20202;-69
2022/02/13 10:51:36;;;;;;;1.03;0.83;;;;;;;;;;5054212;28;20729;-68
2022/02/13 10:54:05;;;;;;;3.43;1.97;;;;;;;;;;5052749;28;20603;-67
2022/02/13 10:56:35;;;;;;;2.67;1.87;;;;;;;;;;5068028;28;20202;-67
2022/02/13 10:59:02;;;;;;;5.67;1.80;;;;;;;;;;5077809;28;20606;-68
2022/02/13 11:01:30;;;;;;;3.43;2.07;;;;;;;;;;5058442;28;20234;-66
2022/02/13 11:04:03;;;;;;;2.07;1.60;;;;;;;;;;5069017;28;20203;-67
2022/02/13 11:06:35;;;;;;;3.40;2.10;;;;;;;;;;5064112;28;20226;-69
2022/02/13 11:09:06;;;;;;;1.77;1.40;;;;;;;;;;5057726;28;20195;-68
2022/02/13 11:11:35;;;;;;;0.73;0.73;;;;;;;;;;5050919;28;20198;-70
2022/02/13 11:14:03;;;;;;;3.40;1.83;;;;;;;;;;5056454;28;20195;-68
2022/02/13 11:16:31;;;;;;;1.97;1.47;;;;;;;;;;5072462;28;20201;-69
2022/02/13 11:19:00;;;;;;;2.37;1.77;;;;;;;;;;5068782;28;20210;-70
2022/02/13 11:21:29;;;;;;;1.90;1.27;;;;;;;;;;5052662;28;22385;-70
2022/02/13 11:23:58;;;;;;;3.53;2.40;;;;;;;;;;5052914;28;20205;-71
2022/02/13 11:26:40;;;;;;;2.53;1.97;;;;;;;;;;5050750;28;20663;-76
2022/02/13 11:29:08;;;;;;;2.63;2.13;;;;;;;;;;5051943;28;20273;-68
2022/02/13 11:31:42;;;;;;;1.17;1.00;;;;;;;;;;5051301;28;20721;-70
2022/02/13 11:34:10;;;;;;;3.07;2.40;;;;;;;;;;5052589;28;20290;-70
2022/02/13 11:36:41;;;;;;;2.67;1.73;;;;;;;;;;5050199;28;20215;-71
2022/02/13 11:39:09;;;;;;;3.27;1.67;;;;;;;;;;5045550;28;20199;-69
2022/02/13 11:42:10;;;;;;;4.13;1.17;;;;;;;;;;5041369;28;20220;-69
2022/02/13 11:44:57;;;;;;;1.50;1.40;;;;;;;;;;5055814;28;20203;-68
2022/02/13 11:47:41;;;;;;;1.30;1.30;;;;;;;;;;5058678;28;20225;-68
2022/02/13 11:50:27;;;;;;;4.27;2.83;;;;;;;;;;5053072;28;20200;-69
2022/02/13 11:52:56;;;;;;;1.87;1.30;;;;;;;;;;5049036;28;21911;-69
2022/02/13 11:55:26;;;;;;;2.93;1.80;;;;;;;;;;5063234;28;20191;-68
2022/02/13 11:57:55;;;;;;;1.20;1.13;;;;;;;;;;5082492;28;20578;-68
2022/02/13 12:00:32;;;;;;;2.87;2.20;;;;;;;;;;5069981;28;20200;-68
2022/02/13 12:03:11;;;;;;;3.37;2.97;;;;;;;;;;5059474;28;20687;-69
2022/02/13 12:05:39;;;;;;;0.17;0.17;;;;;;;;;;5053390;28;20234;-68
2022/02/13 12:08:06;;;;;;;2.33;2.13;;;;;;;;;;5054836;28;20202;-72
2022/02/13 12:10:36;;;;;;;0.80;0.80;;;;;;;;;;5057848;28;20655;-68
2022/02/13 12:13:11;;;;;;;0.77;0.77;;;;;;;;;;5054806;28;20199;-66
2022/02/13 12:15:39;;;;;;;1.03;0.90;;;;;;;;;;5056859;28;20214;-71
2022/02/13 12:18:09;;;;;;;4.07;1.20;;;;;;;;;;5055569;28;20207;-69
2022/02/13 12:20:37;;;;;;;0.77;0.77;;;;;;;;;;5054536;28;20199;-72
2022/02/13 12:23:06;;;;;;;2.40;2.20;;;;;;;;;;5053154;28;20661;-69
2022/02/13 12:25:34;;;;;;;2.50;1.60;;;;;;;;;;5054411;28;20231;-68
2022/02/13 12:28:01;;;;;;;1.73;1.50;;;;;;;;;;5055236;28;20199;-70
2022/02/13 12:30:29;;;;;;;2.23;1.77;;;;;;;;;;5054320;28;20776;-69
2022/02/13 12:32:59;;;;;;;2.00;1.67;;;;;;;;;;5052570;28;20283;-68
2022/02/13 12:35:32;;;;;;;2.67;2.47;;;;;;;;;;5055063;28;20226;-70
2022/02/13 12:38:02;;;;;;;1.20;1.07;;;;;;;;;;5052087;28;20190;-71
2022/02/13 12:40:31;;;;;;;1.57;1.47;;;;;;;;;;5055507;28;20209;-68
2022/02/13 12:43:00;;;;;;;1.07;1.03;;;;;;;;;;5051167;28;20231;-69
2022/02/13 12:45:29;;;;;;;2.70;1.00;;;;;;;;;;5053495;28;20198;-69
2022/02/13 12:47:58;;;;;;;1.23;1.13;;;;;;;;;;5050595;28;20204;-70
2022/02/13 12:50:27;;;;;;;1.27;1.17;;;;;;;;;;5056898;28;20208;-71
2022/02/13 12:52:59;;;;;;;4.27;0.87;;;;;;;;;;5054725;28;20333;-69
2022/02/13 12:55:26;;;;;;;1.07;0.80;;;;;;;;;;5055604;28;20195;-69
2022/02/13 12:57:54;;;;;;;0.90;0.83;;;;;;;;;;5053161;28;20277;-71
2022/02/13 13:00:23;;;;;;;1.67;1.33;;;;;;;;;;5050686;28;20198;-68
2022/02/13 13:02:58;;;;;;;2.67;1.90;;;;;;;;;;5056996;28;20603;-71
2022/02/13 13:05:29;;;;;;;1.23;1.13;;;;;;;;;;5049819;28;20243;-69
2022/02/13 13:08:12;;;;;;;2.13;1.27;;;;;;;;;;5053394;28;20199;-71
2022/02/13 13:10:47;;;;;;;1.27;0.90;;;;;;;;;;5055987;28;20765;-72
2022/02/13 13:13:14;;;;;;;2.27;1.30;;;;;;;;;;5053126;28;20191;-69
2022/02/13 13:15:53;;;;;;;1.90;1.80;;;;;;;;;;5055040;28;20600;-68
2022/02/13 13:18:34;;;;;;;3.07;1.47;;;;;;;;;;5053686;28;20207;-68
2022/02/13 13:21:12;;;;;;;1.67;1.47;;;;;;;;;;5050070;28;20207;-68
2022/02/13 13:23:55;;;;;;;1.00;0.90;;;;;;;;;;5048502;28;20199;-70
2022/02/13 13:26:22;;;;;;;1.90;1.53;;;;;;;;;;5051897;28;20203;-68
2022/02/13 13:28:50;;;;;;;1.97;1.87;;;;;;;;;;5050942;28;20204;-70
2022/02/13 13:31:17;;;;;;;0.97;0.90;;;;;;;;;;5051111;28;20196;-68
2022/02/13 13:33:44;;;;;;;3.63;1.97;;;;;;;;;;5053622;28;20200;-72
2022/02/13 13:36:14;;;;;;;2.20;1.53;;;;;;;;;;5053685;28;20214;-70
2022/02/13 13:38:42;;;;;;;3.30;2.60;;;;;;;;;;5055415;28;20286;-70
2022/02/13 13:41:10;;;;;;;3.87;2.17;;;;;;;;;;5054442;28;20203;-72
2022/02/13 13:43:38;;;;;;;2.17;1.93;;;;;;;;;;5055682;28;20195;-68
2022/02/13 13:46:15;;;;;;;2.50;1.77;;;;;;;;;;5059073;28;20244;-69
2022/02/13 13:48:42;;;;;;;6.23;3.20;;;;;;;;;;5053915;28;20639;-67
2022/02/13 13:51:10;;;;;;;1.73;1.40;;;;;;;;;;5055054;28;20215;-68
2022/02/13 13:53:37;;;;;;;0.77;0.77;;;;;;;;;;5057391;28;20202;-70
2022/02/13 13:56:07;;;;;;;0.93;0.93;;;;;;;;;;5054762;28;20212;-71
2022/02/13 13:58:34;;;;;;;3.93;3.03;;;;;;;;;;5055589;28;20246;-67
2022/02/13 14:01:02;;;;;;;0.50;0.50;;;;;;;;;;5054372;28;20566;-68
2022/02/13 14:03:29;;;;;;;1.00;0.90;;;;;;;;;;5060444;28;20231;-73
2022/02/13 14:05:56;;;;;;;1.13;1.03;;;;;;;;;;5055368;28;20230;-68
2022/02/13 14:08:24;;;;;;;3.80;1.97;;;;;;;;;;5060763;28;20659;-69
2022/02/13 14:10:51;;;;;;;2.47;0.67;;;;;;;;;;5072798;28;20305;-69
2022/02/13 14:13:20;;;;;;;2.30;1.50;;;;;;;;;;5066709;28;20249;-70
2022/02/13 14:15:47;;;;;;;3.33;1.47;;;;;;;;;;5065668;28;20191;-68
2022/02/13 14:18:15;;;;;;;1.80;1.70;;;;;;;;;;5062370;28;20202;-67
2022/02/13 14:20:42;;;;;;;0.73;0.60;;;;;;;;;;5053938;28;20276;-67
2022/02/13 14:23:09;;;;;;;0.83;0.83;;;;;;;;;;5054131;28;20223;-69
2022/02/13 14:25:39;;;;;;;2.23;1.70;;;;;;;;;;5059704;28;20214;-70
2022/02/13 14:28:06;;;;;;;2.40;1.83;;;;;;;;;;5056410;28;20200;-69
2022/02/13 14:30:36;;;;;;;3.27;1.30;;;;;;;;;;5054893;28;20683;-68
2022/02/13 14:33:04;;;;;;;2.60;1.17;;;;;;;;;;5056764;28;20204;-68
2022/02/13 14:35:31;;;;;;;6.07;2.10;;;;;;;;;;5055504;28;20203;-69
2022/02/13 14:37:59;;;;;;;3.77;1.83;;;;;;;;;;5058190;28;20203;-68
2022/02/13 14:40:26;;;;;;;2.47;1.73;;;;;;;;;;5053722;28;20196;-68
2022/02/13 14:42:53;;;;;;;5.50;1.67;;;;;;;;;;5053670;28;20231;-69
2022/02/13 14:45:21;;;;;;;2.97;1.50;;;;;;;;;;5057903;28;20554;-68
2022/02/13 14:47:50;;;;;;;2.00;1.77;;;;;;;;;;5053138;28;20203;-66
2022/02/13 14:50:18;;;;;;;1.40;1.30;;;;;;;;;;5057162;28;20210;-67
2022/02/13 14:52:45;;;;;;;0.30;0.30;;;;;;;;;;5058483;28;20290;-66